sensor_id;sensor_type;location;lat;lon;timestamp;pressure;altitude;pressure_sealevel;temperature;humidity
36972;BME280;40554;52.122;20.678;2023-01-26T06:38:50;101127.42;;;-0.29;100.00
36972;BME280;40554;52.122;20.678;2023-01-26T06:41:09;101128.23;;;-0.25;100.00
36972;BME280;40554;52.122;20.678;2023-01-26T06:43:26;101128.77;;;-0.25;100.00
36972;BME280;40554;52.122;20.678;2023-01-26T06:45:42;101125.16;;;-0.27;100.00
36972;BME280;40554;52.122;20.678;2023-01-26T06:47:58;101127.23;;;-0.28;100.00
36972;BME280;40554;52.122;20.678;2023-01-26T06:50:17;101125.52;;;-0.29;100.00
36972;BME280;40554;52.122;20.678;2023-01-26T06:52:34;101124.31;;;-0.29;100.00
36972;BME280;40554;52.122;20.678;2023-01-26T06:54:52;101122.77;;;-0.30;100.00
36972;BME280;40554;52.122;20.678;2023-01-26T06:57:09;101123.29;;;-0.32;100.00
36972;BME280;40554;52.122;20.678;2023-01-26T06:59:25;101120.72;;;-0.35;100.00
36972;BME280;40554;52.122;20.678;2023-01-26T07:01:44;101118.66;;;-0.37;100.00
36972;BME280;40554;52.122;20.678;2023-01-26T07:04:03;101115.88;;;-0.37;100.00
36972;BME280;40554;52.122;20.678;2023-01-26T07:06:20;101118.69;;;-0.38;100.00
36972;BME280;40554;52.122;20.678;2023-01-26T07:08:36;101117.13;;;-0.39;100.00
36972;BME280;40554;52.122;20.678;2023-01-26T07:10:52;101119.73;;;-0.39;100.00
36972;BME280;40554;52.122;20.678;2023-01-26T07:13:09;101120.39;;;-0.36;100.00
36972;BME280;40554;52.122;20.678;2023-01-26T07:15:25;101119.31;;;-0.33;100.00
36972;BME280;40554;52.122;20.678;2023-01-26T07:17:41;101122.21;;;-0.28;100.00
36972;BME280;40554;52.122;20.678;2023-01-26T07:19:57;101122.69;;;-0.26;100.00
36972;BME280;40554;52.122;20.678;2023-01-26T07:22:13;101123.37;;;-0.24;100.00
36972;BME280;40554;52.122;20.678;2023-01-26T07:24:30;101121.63;;;-0.24;100.00
36972;BME280;40554;52.122;20.678;2023-01-26T07:26:50;101118.86;;;-0.25;100.00
36972;BME280;40554;52.122;20.678;2023-01-26T07:29:06;101114.86;;;-0.25;100.00
36972;BME280;40554;52.122;20.678;2023-01-26T07:31:22;101115.90;;;-0.25;100.00
36972;BME280;40554;52.122;20.678;2023-01-26T07:33:39;101111.04;;;-0.25;100.00
36972;BME280;40554;52.122;20.678;2023-01-26T07:35:56;101109.30;;;-0.25;100.00
36972;BME280;40554;52.122;20.678;2023-01-26T07:38:12;101112.77;;;-0.23;100.00
36972;BME280;40554;52.122;20.678;2023-01-26T07:40:28;101112.42;;;-0.24;100.00
36972;BME280;40554;52.122;20.678;2023-01-26T07:42:44;101102.69;;;-0.24;100.00
36972;BME280;40554;52.122;20.678;2023-01-26T07:45:01;101101.30;;;-0.24;100.00
36972;BME280;40554;52.122;20.678;2023-01-26T07:47:17;101094.54;;;-0.24;100.00
36972;BME280;40554;52.122;20.678;2023-01-26T07:49:35;101091.90;;;-0.23;100.00
36972;BME280;40554;52.122;20.678;2023-01-26T07:51:51;101097.79;;;-0.21;100.00
36972;BME280;40554;52.122;20.678;2023-01-26T07:54:09;101093.80;;;-0.20;100.00
36972;BME280;40554;52.122;20.678;2023-01-26T07:56:26;101093.08;;;-0.20;100.00
36972;BME280;40554;52.122;20.678;2023-01-26T07:58:43;101092.55;;;-0.18;100.00
36972;BME280;40554;52.122;20.678;2023-01-26T08:01:07;101094.27;;;-0.18;100.00
36972;BME280;40554;52.122;20.678;2023-01-26T08:03:24;101096.52;;;-0.17;100.00
36972;BME280;40554;52.122;20.678;2023-01-26T08:05:40;101089.92;;;-0.17;100.00
36972;BME280;40554;52.122;20.678;2023-01-26T08:07:58;101091.83;;;-0.17;100.00
36972;BME280;40554;52.122;20.678;2023-01-26T08:10:15;101096.52;;;-0.17;100.00
36972;BME280;40554;52.122;20.678;2023-01-26T08:12:34;101098.25;;;-0.17;100.00
36972;BME280;40554;52.122;20.678;2023-01-26T08:14:54;101094.91;;;-0.13;100.00
36972;BME280;40554;52.122;20.678;2023-01-26T08:17:10;101094.02;;;-0.11;100.00
36972;BME280;40554;52.122;20.678;2023-01-26T08:19:27;101093.31;;;-0.10;100.00
36972;BME280;40554;52.122;20.678;2023-01-26T08:21:43;101091.74;;;-0.10;100.00
36972;BME280;40554;52.122;20.678;2023-01-26T08:23:59;101093.45;;;-0.09;100.00
36972;BME280;40554;52.122;20.678;2023-01-26T08:26:19;101088.94;;;-0.07;100.00
36972;BME280;40554;52.122;20.678;2023-01-26T08:28:36;101090.30;;;-0.06;100.00
36972;BME280;40554;52.122;20.678;2023-01-26T08:30:52;101093.95;;;-0.06;100.00
36972;BME280;40554;52.122;20.678;2023-01-26T08:33:08;101095.83;;;-0.04;100.00
36972;BME280;40554;52.122;20.678;2023-01-26T08:35:25;101095.46;;;-0.02;100.00
36972;BME280;40554;52.122;20.678;2023-01-26T08:37:41;101098.39;;;0.01;100.00
36972;BME280;40554;52.122;20.678;2023-01-26T08:39:57;101093.66;;;0.03;100.00
36972;BME280;40554;52.122;20.678;2023-01-26T08:42:13;101088.80;;;0.03;100.00
36972;BME280;40554;52.122;20.678;2023-01-26T08:44:31;101089.29;;;0.04;100.00
36972;BME280;40554;52.122;20.678;2023-01-26T08:46:47;101089.83;;;0.04;100.00
36972;BME280;40554;52.122;20.678;2023-01-26T08:49:04;101094.83;;;0.05;100.00
36972;BME280;40554;52.122;20.678;2023-01-26T08:51:20;101090.86;;;0.04;100.00
36972;BME280;40554;52.122;20.678;2023-01-26T08:53:37;101092.59;;;0.05;100.00
36972;BME280;40554;52.122;20.678;2023-01-26T08:55:55;101098.48;;;0.05;100.00
36972;BME280;40554;52.122;20.678;2023-01-26T08:58:11;101102.33;;;0.05;100.00
36972;BME280;40554;52.122;20.678;2023-01-26T09:00:28;101103.55;;;0.04;100.00
36972;BME280;40554;52.122;20.678;2023-01-26T09:02:44;101104.75;;;0.05;100.00
36972;BME280;40554;52.122;20.678;2023-01-26T09:05:01;101110.30;;;0.07;100.00
36972;BME280;40554;52.122;20.678;2023-01-26T09:07:17;101112.36;;;0.08;100.00
36972;BME280;40554;52.122;20.678;2023-01-26T09:09:34;101115.68;;;0.07;100.00
36972;BME280;40554;52.122;20.678;2023-01-26T09:11:54;101113.77;;;0.07;100.00
36972;BME280;40554;52.122;20.678;2023-01-26T09:14:10;101117.56;;;0.09;100.00
36972;BME280;40554;52.122;20.678;2023-01-26T09:16:26;101114.75;;;0.11;100.00
36972;BME280;40554;52.122;20.678;2023-01-26T09:18:43;101113.17;;;0.13;100.00
36972;BME280;40554;52.122;20.678;2023-01-26T09:21:07;101118.17;;;0.17;100.00
36972;BME280;40554;52.122;20.678;2023-01-26T09:23:24;101118.64;;;0.19;100.00
36972;BME280;40554;52.122;20.678;2023-01-26T09:25:41;101116.02;;;0.21;100.00
36972;BME280;40554;52.122;20.678;2023-01-26T09:27:57;101113.34;;;0.25;100.00
36972;BME280;40554;52.122;20.678;2023-01-26T09:30:14;101111.36;;;0.30;100.00
36972;BME280;40554;52.122;20.678;2023-01-26T09:32:33;101113.27;;;0.31;100.00
36972;BME280;40554;52.122;20.678;2023-01-26T09:34:49;101106.30;;;0.31;100.00
36972;BME280;40554;52.122;20.678;2023-01-26T09:37:07;101106.11;;;0.33;100.00
36972;BME280;40554;52.122;20.678;2023-01-26T09:39:23;101104.90;;;0.33;100.00
36972;BME280;40554;52.122;20.678;2023-01-26T09:41:45;101102.28;;;0.33;100.00
36972;BME280;40554;52.122;20.678;2023-01-26T09:44:09;101102.45;;;0.33;100.00
36972;BME280;40554;52.122;20.678;2023-01-26T09:46:59;101097.57;;;0.34;100.00
36972;BME280;40554;52.122;20.678;2023-01-26T09:49:40;101097.04;;;0.34;100.00
36972;BME280;40554;52.122;20.678;2023-01-26T09:52:39;101099.50;;;0.32;100.00
36972;BME280;40554;52.122;20.678;2023-01-26T09:55:12;101094.48;;;0.30;100.00
36972;BME280;40554;52.122;20.678;2023-01-26T09:57:35;101090.33;;;0.30;100.00
36972;BME280;40554;52.122;20.678;2023-01-26T10:00:09;101087.02;;;0.30;100.00
36972;BME280;40554;52.122;20.678;2023-01-26T10:05:01;101086.13;;;0.31;100.00
36972;BME280;40554;52.122;20.678;2023-01-26T10:07:19;101086.66;;;0.30;100.00
36972;BME280;40554;52.122;20.678;2023-01-26T10:09:37;101082.89;;;0.27;100.00
36972;BME280;40554;52.122;20.678;2023-01-26T10:12:05;101076.15;;;0.24;100.00
36972;BME280;40554;52.122;20.678;2023-01-26T10:14:36;101071.65;;;0.22;100.00
36972;BME280;40554;52.122;20.678;2023-01-26T10:16:57;101073.89;;;0.23;100.00
36972;BME280;40554;52.122;20.678;2023-01-26T10:19:38;101072.67;;;0.25;100.00
36972;BME280;40554;52.122;20.678;2023-01-26T10:21:59;101068.62;;;0.28;100.00
36972;BME280;40554;52.122;20.678;2023-01-26T10:24:21;101063.02;;;0.30;100.00
36972;BME280;40554;52.122;20.678;2023-01-26T10:26:39;101057.23;;;0.33;100.00
36972;BME280;40554;52.122;20.678;2023-01-26T10:28:56;101057.89;;;0.35;100.00
36972;BME280;40554;52.122;20.678;2023-01-26T10:31:21;101051.81;;;0.35;100.00
36972;BME280;40554;52.122;20.678;2023-01-26T10:33:42;101048.10;;;0.38;100.00
36972;BME280;40554;52.122;20.678;2023-01-26T10:36:05;101043.34;;;0.42;100.00
36972;BME280;40554;52.122;20.678;2023-01-26T10:40:48;101034.27;;;0.43;100.00
36972;BME280;40554;52.122;20.678;2023-01-26T10:43:08;101036.18;;;0.44;100.00
36972;BME280;40554;52.122;20.678;2023-01-26T10:45:44;101035.50;;;0.43;100.00
36972;BME280;40554;52.122;20.678;2023-01-26T10:50:28;101032.89;;;0.42;100.00
36972;BME280;40554;52.122;20.678;2023-01-26T10:53:00;101029.27;;;0.42;100.00
36972;BME280;40554;52.122;20.678;2023-01-26T10:55:20;101027.00;;;0.41;100.00
36972;BME280;40554;52.122;20.678;2023-01-26T10:57:44;101026.45;;;0.43;100.00
36972;BME280;40554;52.122;20.678;2023-01-26T11:00:09;101018.76;;;0.45;100.00
36972;BME280;40554;52.122;20.678;2023-01-26T11:02:35;101015.05;;;0.49;100.00
36972;BME280;40554;52.122;20.678;2023-01-26T11:07:32;101005.30;;;0.50;100.00
36972;BME280;40554;52.122;20.678;2023-01-26T11:09:51;101000.94;;;0.50;100.00
36972;BME280;40554;52.122;20.678;2023-01-26T11:12:17;100999.23;;;0.48;100.00
36972;BME280;40554;52.122;20.678;2023-01-26T11:14:37;100993.34;;;0.47;100.00
36972;BME280;40554;52.122;20.678;2023-01-26T11:17:10;100985.88;;;0.45;100.00
36972;BME280;40554;52.122;20.678;2023-01-26T11:22:19;100991.03;;;0.49;100.00
36972;BME280;40554;52.122;20.678;2023-01-26T11:25:19;100983.59;;;0.47;100.00
36972;BME280;40554;52.122;20.678;2023-01-26T11:30:27;100978.20;;;0.47;100.00
36972;BME280;40554;52.122;20.678;2023-01-26T11:32:52;100973.28;;;0.49;100.00
36972;BME280;40554;52.122;20.678;2023-01-26T11:40:58;100964.85;;;0.53;100.00
36972;BME280;40554;52.122;20.678;2023-01-26T11:46:07;100964.37;;;0.52;100.00
36972;BME280;40554;52.122;20.678;2023-01-26T11:53:54;100956.23;;;0.60;100.00
36972;BME280;40554;52.122;20.678;2023-01-26T11:59:16;100947.20;;;0.67;100.00
36972;BME280;40554;52.122;20.678;2023-01-26T12:01:39;100944.89;;;0.71;100.00
36972;BME280;40554;52.122;20.678;2023-01-26T12:03:56;100951.28;;;0.73;100.00
36972;BME280;40554;52.122;20.678;2023-01-26T12:06:29;100952.80;;;0.76;100.00
36972;BME280;40554;52.122;20.678;2023-01-26T12:11:27;100951.33;;;0.70;100.00
36972;BME280;40554;52.122;20.678;2023-01-26T12:13:49;100943.69;;;0.70;100.00
36972;BME280;40554;52.122;20.678;2023-01-26T12:16:53;100932.69;;;0.72;100.00
36972;BME280;40554;52.122;20.678;2023-01-26T12:22:07;100929.95;;;0.78;100.00
36972;BME280;40554;52.122;20.678;2023-01-26T12:24:35;100929.42;;;0.79;100.00
36972;BME280;40554;52.122;20.678;2023-01-26T12:27:27;100927.34;;;0.79;100.00
36972;BME280;40554;52.122;20.678;2023-01-26T12:32:32;100929.06;;;0.80;100.00
36972;BME280;40554;52.122;20.678;2023-01-26T12:34:48;100930.28;;;0.79;100.00
36972;BME280;40554;52.122;20.678;2023-01-26T12:39:34;100933.05;;;0.80;100.00
36972;BME280;40554;52.122;20.678;2023-01-26T12:44:40;100937.54;;;0.81;100.00
36972;BME280;40554;52.122;20.678;2023-01-26T12:55:25;100933.09;;;0.78;100.00
36972;BME280;40554;52.122;20.678;2023-01-26T12:57:52;100933.21;;;0.72;100.00
36972;BME280;40554;52.122;20.678;2023-01-26T13:00:21;100930.98;;;0.70;100.00
36972;BME280;40554;52.122;20.678;2023-01-26T13:02:38;100926.10;;;0.71;100.00
36972;BME280;40554;52.122;20.678;2023-01-26T13:04:57;100922.80;;;0.70;100.00
36972;BME280;40554;52.122;20.678;2023-01-26T13:07:34;100921.58;;;0.70;100.00
36972;BME280;40554;52.122;20.678;2023-01-26T13:15:11;100924.46;;;0.64;100.00
36972;BME280;40554;52.122;20.678;2023-01-26T13:20:21;100926.30;;;0.59;100.00
36972;BME280;40554;52.122;20.678;2023-01-26T13:22:40;100922.89;;;0.55;100.00
36972;BME280;40554;52.122;20.678;2023-01-26T13:24:58;100918.98;;;0.51;100.00
36972;BME280;40554;52.122;20.678;2023-01-26T13:29:52;100915.27;;;0.45;100.00
36972;BME280;40554;52.122;20.678;2023-01-26T13:34:36;100912.69;;;0.43;100.00
36972;BME280;40554;52.122;20.678;2023-01-26T13:37:04;100911.29;;;0.43;100.00
36972;BME280;40554;52.122;20.678;2023-01-26T13:39:30;100907.47;;;0.42;100.00
36972;BME280;40554;52.122;20.678;2023-01-26T13:41:47;100910.94;;;0.43;100.00
36972;BME280;40554;52.122;20.678;2023-01-26T13:44:07;100909.57;;;0.42;100.00
36972;BME280;40554;52.122;20.678;2023-01-26T13:46:35;100905.94;;;0.41;100.00
36972;BME280;40554;52.122;20.678;2023-01-26T13:48:55;100903.14;;;0.42;100.00
36972;BME280;40554;52.122;20.678;2023-01-26T13:51:33;100901.07;;;0.40;100.00
36972;BME280;40554;52.122;20.678;2023-01-26T13:56:37;100910.20;;;0.36;100.00
36972;BME280;40554;52.122;20.678;2023-01-26T13:59:20;100907.12;;;0.33;100.00
36972;BME280;40554;52.122;20.678;2023-01-26T14:01:43;100908.35;;;0.33;100.00
36972;BME280;40554;52.122;20.678;2023-01-26T14:04:05;100907.11;;;0.34;100.00
36972;BME280;40554;52.122;20.678;2023-01-26T14:06:21;100908.66;;;0.34;100.00
36972;BME280;40554;52.122;20.678;2023-01-26T14:08:44;100905.04;;;0.32;100.00
36972;BME280;40554;52.122;20.678;2023-01-26T14:11:14;100906.48;;;0.29;100.00
36972;BME280;40554;52.122;20.678;2023-01-26T14:13:35;100906.71;;;0.27;100.00
36972;BME280;40554;52.122;20.678;2023-01-26T14:15:58;100907.77;;;0.26;100.00
36972;BME280;40554;52.122;20.678;2023-01-26T14:18:19;100908.51;;;0.25;100.00
36972;BME280;40554;52.122;20.678;2023-01-26T14:20:38;100906.81;;;0.21;100.00
36972;BME280;40554;52.122;20.678;2023-01-26T14:25:33;100902.34;;;0.18;100.00
36972;BME280;40554;52.122;20.678;2023-01-26T14:27:50;100902.67;;;0.19;100.00
36972;BME280;40554;52.122;20.678;2023-01-26T14:30:29;100900.09;;;0.17;100.00
36972;BME280;40554;52.122;20.678;2023-01-26T14:32:47;100902.38;;;0.16;100.00
36972;BME280;40554;52.122;20.678;2023-01-26T14:35:18;100900.15;;;0.14;100.00
36972;BME280;40554;52.122;20.678;2023-01-26T14:37:35;100903.28;;;0.13;100.00
36972;BME280;40554;52.122;20.678;2023-01-26T14:40:28;100903.50;;;0.11;100.00
36972;BME280;40554;52.122;20.678;2023-01-26T14:42:47;100905.09;;;0.10;100.00
36972;BME280;40554;52.122;20.678;2023-01-26T14:45:29;100901.48;;;0.07;100.00
36972;BME280;40554;52.122;20.678;2023-01-26T14:47:46;100898.73;;;0.05;100.00
36972;BME280;40554;52.122;20.678;2023-01-26T14:50:13;100890.92;;;0.04;100.00
36972;BME280;40554;52.122;20.678;2023-01-26T14:52:38;100889.41;;;0.02;100.00
36972;BME280;40554;52.122;20.678;2023-01-26T14:54:57;100887.55;;;-0.00;100.00
36972;BME280;40554;52.122;20.678;2023-01-26T14:57:20;100883.75;;;-0.03;100.00
36972;BME280;40554;52.122;20.678;2023-01-26T14:59:40;100883.77;;;-0.05;100.00
36972;BME280;40554;52.122;20.678;2023-01-26T15:02:36;100882.60;;;-0.08;100.00
36972;BME280;40554;52.122;20.678;2023-01-26T15:05:00;100872.58;;;-0.10;100.00
36972;BME280;40554;52.122;20.678;2023-01-26T15:07:41;100871.20;;;-0.12;100.00
36972;BME280;40554;52.122;20.678;2023-01-26T15:09:58;100870.54;;;-0.13;100.00
36972;BME280;40554;52.122;20.678;2023-01-26T15:12:16;100870.37;;;-0.13;100.00
36972;BME280;40554;52.122;20.678;2023-01-26T15:14:49;100871.07;;;-0.14;100.00
36972;BME280;40554;52.122;20.678;2023-01-26T15:17:40;100873.17;;;-0.16;100.00
36972;BME280;40554;52.122;20.678;2023-01-26T15:20:00;100871.36;;;-0.20;100.00
36972;BME280;40554;52.122;20.678;2023-01-26T15:22:23;100878.52;;;-0.23;100.00
36972;BME280;40554;52.122;20.678;2023-01-26T15:24:46;100875.58;;;-0.24;100.00
36972;BME280;40554;52.122;20.678;2023-01-26T15:27:03;100872.10;;;-0.25;100.00
36972;BME280;40554;52.122;20.678;2023-01-26T15:29:25;100873.85;;;-0.25;100.00
36972;BME280;40554;52.122;20.678;2023-01-26T15:31:43;100878.58;;;-0.27;100.00
36972;BME280;40554;52.122;20.678;2023-01-26T15:34:00;100878.42;;;-0.29;100.00
36972;BME280;40554;52.122;20.678;2023-01-26T15:36:21;100882.58;;;-0.28;100.00
36972;BME280;40554;52.122;20.678;2023-01-26T15:38:38;100882.93;;;-0.27;100.00
36972;BME280;40554;52.122;20.678;2023-01-26T15:40:54;100884.48;;;-0.27;100.00
36972;BME280;40554;52.122;20.678;2023-01-26T15:43:14;100887.77;;;-0.26;100.00
36972;BME280;40554;52.122;20.678;2023-01-26T15:45:31;100890.05;;;-0.27;100.00
36972;BME280;40554;52.122;20.678;2023-01-26T15:47:51;100887.62;;;-0.28;100.00
36972;BME280;40554;52.122;20.678;2023-01-26T15:50:08;100889.37;;;-0.28;100.00
36972;BME280;40554;52.122;20.678;2023-01-26T15:52:34;100886.98;;;-0.31;100.00
36972;BME280;40554;52.122;20.678;2023-01-26T15:54:51;100890.82;;;-0.33;100.00
36972;BME280;40554;52.122;20.678;2023-01-26T15:57:10;100896.38;;;-0.33;100.00
36972;BME280;40554;52.122;20.678;2023-01-26T15:59:26;100894.64;;;-0.33;100.00
36972;BME280;40554;52.122;20.678;2023-01-26T16:01:43;100895.49;;;-0.31;100.00
36972;BME280;40554;52.122;20.678;2023-01-26T16:03:59;100897.05;;;-0.30;100.00
36972;BME280;40554;52.122;20.678;2023-01-26T16:08:37;100902.27;;;-0.31;100.00
36972;BME280;40554;52.122;20.678;2023-01-26T16:10:53;100906.61;;;-0.30;100.00
36972;BME280;40554;52.122;20.678;2023-01-26T16:13:14;100902.63;;;-0.32;100.00
36972;BME280;40554;52.122;20.678;2023-01-26T16:15:45;100902.14;;;-0.34;100.00
36972;BME280;40554;52.122;20.678;2023-01-26T16:18:02;100908.41;;;-0.34;100.00
36972;BME280;40554;52.122;20.678;2023-01-26T16:20:18;100907.72;;;-0.35;100.00
36972;BME280;40554;52.122;20.678;2023-01-26T16:22:35;100910.84;;;-0.35;100.00
36972;BME280;40554;52.122;20.678;2023-01-26T16:24:51;100911.37;;;-0.35;100.00
36972;BME280;40554;52.122;20.678;2023-01-26T16:27:08;100910.84;;;-0.35;100.00
36972;BME280;40554;52.122;20.678;2023-01-26T16:29:24;100909.79;;;-0.35;100.00
36972;BME280;40554;52.122;20.678;2023-01-26T16:31:40;100912.39;;;-0.34;100.00
36972;BME280;40554;52.122;20.678;2023-01-26T16:33:57;100914.66;;;-0.34;100.00
36972;BME280;40554;52.122;20.678;2023-01-26T16:36:15;100915.00;;;-0.35;100.00
36972;BME280;40554;52.122;20.678;2023-01-26T16:38:31;100908.59;;;-0.35;100.00
36972;BME280;40554;52.122;20.678;2023-01-26T16:40:48;100912.05;;;-0.34;100.00
36972;BME280;40554;52.122;20.678;2023-01-26T16:43:04;100913.27;;;-0.34;100.00
36972;BME280;40554;52.122;20.678;2023-01-26T16:45:27;100914.83;;;-0.34;100.00
36972;BME280;40554;52.122;20.678;2023-01-26T16:47:43;100911.85;;;-0.33;100.00
36972;BME280;40554;52.122;20.678;2023-01-26T16:50:00;100912.53;;;-0.32;100.00
36972;BME280;40554;52.122;20.678;2023-01-26T16:52:16;100910.60;;;-0.30;100.00
36972;BME280;40554;52.122;20.678;2023-01-26T16:54:32;100908.34;;;-0.30;100.00
36972;BME280;40554;52.122;20.678;2023-01-26T16:56:49;100910.25;;;-0.30;100.00
36972;BME280;40554;52.122;20.678;2023-01-26T16:59:05;100911.46;;;-0.30;100.00
36972;BME280;40554;52.122;20.678;2023-01-26T17:01:24;100913.02;;;-0.30;100.00
36972;BME280;40554;52.122;20.678;2023-01-26T17:03:43;100909.90;;;-0.30;100.00
36972;BME280;40554;52.122;20.678;2023-01-26T17:06:00;100909.90;;;-0.30;100.00
36972;BME280;40554;52.122;20.678;2023-01-26T17:08:16;100910.38;;;-0.28;100.00
36972;BME280;40554;52.122;20.678;2023-01-26T17:10:32;100913.81;;;-0.26;100.00
36972;BME280;40554;52.122;20.678;2023-01-26T17:12:49;100913.80;;;-0.24;100.00
36972;BME280;40554;52.122;20.678;2023-01-26T17:15:06;100914.84;;;-0.23;100.00
36972;BME280;40554;52.122;20.678;2023-01-26T17:17:24;100907.73;;;-0.25;100.00
36972;BME280;40554;52.122;20.678;2023-01-26T17:19:41;100911.38;;;-0.25;100.00
36972;BME280;40554;52.122;20.678;2023-01-26T17:21:57;100905.31;;;-0.26;100.00
36972;BME280;40554;52.122;20.678;2023-01-26T17:24:13;100904.65;;;-0.27;100.00
36972;BME280;40554;52.122;20.678;2023-01-26T17:26:30;100898.92;;;-0.28;100.00
36972;BME280;40554;52.122;20.678;2023-01-26T17:28:47;100897.53;;;-0.28;100.00
36972;BME280;40554;52.122;20.678;2023-01-26T17:31:12;100897.04;;;-0.30;100.00
36972;BME280;40554;52.122;20.678;2023-01-26T17:33:32;100900.38;;;-0.33;100.00
36972;BME280;40554;52.122;20.678;2023-01-26T17:35:48;100893.30;;;-0.35;100.00
36972;BME280;40554;52.122;20.678;2023-01-26T17:38:04;100892.63;;;-0.36;100.00
36972;BME280;40554;52.122;20.678;2023-01-26T17:40:20;100891.59;;;-0.37;100.00
36972;BME280;40554;52.122;20.678;2023-01-26T17:42:37;100886.02;;;-0.36;100.00
36972;BME280;40554;52.122;20.678;2023-01-26T17:44:53;100881.00;;;-0.38;100.00
36972;BME280;40554;52.122;20.678;2023-01-26T17:47:09;100881.56;;;-0.40;100.00
36972;BME280;40554;52.122;20.678;2023-01-26T17:49:26;100882.79;;;-0.41;100.00
36972;BME280;40554;52.122;20.678;2023-01-26T17:51:42;100883.35;;;-0.43;100.00
36972;BME280;40554;52.122;20.678;2023-01-26T17:54:02;100888.23;;;-0.45;100.00
36972;BME280;40554;52.122;20.678;2023-01-26T17:56:20;100879.92;;;-0.47;100.00
36972;BME280;40554;52.122;20.678;2023-01-26T17:58:37;100882.55;;;-0.49;100.00
36972;BME280;40554;52.122;20.678;2023-01-26T18:00:53;100883.26;;;-0.49;100.00
36972;BME280;40554;52.122;20.678;2023-01-26T18:03:09;100886.55;;;-0.49;100.00
36972;BME280;40554;52.122;20.678;2023-01-26T18:05:26;100890.71;;;-0.49;100.00
36972;BME280;40554;52.122;20.678;2023-01-26T18:07:42;100895.93;;;-0.49;100.00
36972;BME280;40554;52.122;20.678;2023-01-26T18:09:58;100898.71;;;-0.48;100.00
36972;BME280;40554;52.122;20.678;2023-01-26T18:12:15;100896.13;;;-0.50;100.00
36972;BME280;40554;52.122;20.678;2023-01-26T18:14:31;100898.58;;;-0.52;100.00
36972;BME280;40554;52.122;20.678;2023-01-26T18:16:47;100899.98;;;-0.53;100.00
36972;BME280;40554;52.122;20.678;2023-01-26T18:19:03;100902.27;;;-0.54;100.00
36972;BME280;40554;52.122;20.678;2023-01-26T18:21:22;100901.55;;;-0.53;100.00
36972;BME280;40554;52.122;20.678;2023-01-26T18:23:43;100902.58;;;-0.52;100.00
36972;BME280;40554;52.122;20.678;2023-01-26T18:26:01;100900.67;;;-0.52;100.00
36972;BME280;40554;52.122;20.678;2023-01-26T18:28:19;100896.36;;;-0.54;100.00
36972;BME280;40554;52.122;20.678;2023-01-26T18:30:36;100894.81;;;-0.55;100.00
36972;BME280;40554;52.122;20.678;2023-01-26T18:32:52;100894.80;;;-0.55;100.00
36972;BME280;40554;52.122;20.678;2023-01-26T18:35:08;100897.05;;;-0.54;100.00
36972;BME280;40554;52.122;20.678;2023-01-26T18:37:25;100899.95;;;-0.51;100.00
36972;BME280;40554;52.122;20.678;2023-01-26T18:39:42;100904.30;;;-0.50;100.00
36972;BME280;40554;52.122;20.678;2023-01-26T18:41:59;100904.46;;;-0.50;100.00
36972;BME280;40554;52.122;20.678;2023-01-26T18:44:15;100907.41;;;-0.50;100.00
36972;BME280;40554;52.122;20.678;2023-01-26T18:46:33;100904.98;;;-0.50;100.00
36972;BME280;40554;52.122;20.678;2023-01-26T18:48:54;100907.07;;;-0.50;100.00
36972;BME280;40554;52.122;20.678;2023-01-26T18:51:15;100909.16;;;-0.51;100.00
36972;BME280;40554;52.122;20.678;2023-01-26T18:53:34;100906.42;;;-0.53;100.00
36972;BME280;40554;52.122;20.678;2023-01-26T18:56:14;100904.89;;;-0.55;100.00
36972;BME280;40554;52.122;20.678;2023-01-26T18:58:31;100902.29;;;-0.55;100.00
36972;BME280;40554;52.122;20.678;2023-01-26T19:00:48;100902.30;;;-0.55;100.00
36972;BME280;40554;52.122;20.678;2023-01-26T19:03:04;100903.34;;;-0.56;100.00
36972;BME280;40554;52.122;20.678;2023-01-26T19:05:21;100902.13;;;-0.56;100.00
36972;BME280;40554;52.122;20.678;2023-01-26T19:07:37;100902.45;;;-0.55;100.00
36972;BME280;40554;52.122;20.678;2023-01-26T19:09:54;100897.10;;;-0.56;100.00
36972;BME280;40554;52.122;20.678;2023-01-26T19:12:10;100897.96;;;-0.57;100.00
36972;BME280;40554;52.122;20.678;2023-01-26T19:14:27;100899.18;;;-0.57;100.00
36972;BME280;40554;52.122;20.678;2023-01-26T19:16:44;100904.22;;;-0.56;100.00
36972;BME280;40554;52.122;20.678;2023-01-26T19:19:03;100906.64;;;-0.57;100.00
36972;BME280;40554;52.122;20.678;2023-01-26T19:21:21;100909.80;;;-0.58;100.00
36972;BME280;40554;52.122;20.678;2023-01-26T19:23:39;100907.21;;;-0.60;100.00
36972;BME280;40554;52.122;20.678;2023-01-26T19:25:57;100909.81;;;-0.60;100.00
36972;BME280;40554;52.122;20.678;2023-01-26T19:28:14;100911.91;;;-0.61;100.00
36972;BME280;40554;52.122;20.678;2023-01-26T19:30:30;100912.10;;;-0.61;100.00
36972;BME280;40554;52.122;20.678;2023-01-26T19:32:47;100911.42;;;-0.62;100.00
36972;BME280;40554;52.122;20.678;2023-01-26T19:35:22;100912.13;;;-0.62;100.00
36972;BME280;40554;52.122;20.678;2023-01-26T19:37:38;100910.35;;;-0.61;100.00
36972;BME280;40554;52.122;20.678;2023-01-26T19:39:55;100914.17;;;-0.61;100.00
36972;BME280;40554;52.122;20.678;2023-01-26T19:42:11;100913.46;;;-0.60;100.00
36972;BME280;40554;52.122;20.678;2023-01-26T19:44:27;100907.77;;;-0.62;100.00
36972;BME280;40554;52.122;20.678;2023-01-26T19:46:43;100909.50;;;-0.63;100.00
36972;BME280;40554;52.122;20.678;2023-01-26T19:48:59;100907.94;;;-0.62;100.00
36972;BME280;40554;52.122;20.678;2023-01-26T19:51:21;100907.42;;;-0.62;100.00